Time;durP1;ratioP1;P1;durP2;ratioP2;P2;SDS_P1;SDS_P2;PMS_P1;PMS_P2;Temp;Humidity;BMP_temperature;BMP_pressure;BME280_temperature;BME280_humidity;BME280_pressure;Samples;Min_cycle;Max_cycle;Signal;HPM_P1;HPM_P2
2022/07/28 00:00:06;;;;;;;2.85;1.10;;;;;;;14.77;74.96;101921.81;5030575;28;20035;-58
2022/07/28 00:02:32;;;;;;;2.83;1.30;;;;;;;14.73;75.16;101912.16;5028034;28;20034;-59
2022/07/28 00:04:57;;;;;;;4.07;1.48;;;;;;;14.71;74.97;101913.81;5028725;28;20312;-58
2022/07/28 00:07:23;;;;;;;3.15;1.33;;;;;;;14.69;74.98;101920.72;5026866;28;20056;-57
2022/07/28 00:09:48;;;;;;;3.78;1.77;;;;;;;14.63;75.06;101919.69;5026801;28;20018;-58
2022/07/28 00:12:17;;;;;;;3.35;1.33;;;;;;;14.62;75.08;101917.91;5025951;28;20036;-58
2022/07/28 00:14:42;;;;;;;4.28;1.50;;;;;;;14.60;75.66;101911.75;5034555;28;20033;-59
2022/07/28 00:17:07;;;;;;;5.07;1.30;;;;;;;14.59;76.03;101914.31;5030403;28;20024;-59
2022/07/28 00:19:33;;;;;;;2.78;1.30;;;;;;;14.58;75.18;101916.03;5032966;28;20056;-57
2022/07/28 00:21:58;;;;;;;2.30;1.30;;;;;;;14.56;75.29;101909.88;5028721;28;20030;-57
2022/07/28 00:24:24;;;;;;;4.07;1.48;;;;;;;14.53;75.11;101913.25;5027058;28;20032;-58
2022/07/28 00:26:50;;;;;;;3.65;1.30;;;;;;;14.49;75.40;101916.63;5027308;28;20029;-59
2022/07/28 00:29:15;;;;;;;3.45;1.20;;;;;;;14.49;75.37;101923.56;5025809;28;20056;-58
2022/07/28 00:31:40;;;;;;;4.30;1.20;;;;;;;14.46;75.54;101915.63;5034598;28;20458;-57
2022/07/28 00:34:06;;;;;;;4.63;1.35;;;;;;;14.44;75.63;101909.47;5030593;28;20083;-58
2022/07/28 00:36:31;;;;;;;2.95;1.10;;;;;;;14.42;75.93;101917.25;5027668;28;20025;-57
2022/07/28 00:38:56;;;;;;;2.33;1.50;;;;;;;14.34;75.85;101911.78;5027803;28;20112;-59
2022/07/28 00:41:22;;;;;;;1.80;1.10;;;;;;;14.33;75.58;101904.81;5029429;28;20075;-58
2022/07/28 00:43:51;;;;;;;3.78;1.10;;;;;;;14.29;76.20;101905.53;5031084;28;20104;-59
2022/07/28 00:46:19;;;;;;;2.45;1.20;;;;;;;14.27;76.40;101905.47;5029937;28;20109;-59
2022/07/28 00:48:49;;;;;;;3.90;1.35;;;;;;;14.24;76.37;101902.78;5032399;28;20026;-57
2022/07/28 00:51:16;;;;;;;4.25;1.10;;;;;;;14.20;76.67;101908.72;5030513;28;20595;-57
2022/07/28 00:53:42;;;;;;;4.80;1.60;;;;;;;14.16;76.57;101905.09;5039740;28;20025;-57
2022/07/28 00:56:07;;;;;;;4.97;1.38;;;;;;;14.13;77.29;101910.22;5029889;28;20025;-58
2022/07/28 00:58:34;;;;;;;3.90;1.45;;;;;;;14.09;77.17;101902.22;5034468;28;20039;-58
2022/07/28 01:00:59;;;;;;;2.72;1.42;;;;;;;14.05;77.33;101893.41;5031437;28;20028;-59
2022/07/28 01:03:27;;;;;;;5.15;1.35;;;;;;;14.02;77.40;101888.09;5033090;28;20032;-58
2022/07/28 01:06:21;;;;;;;3.03;1.20;;;;;;;13.97;77.34;101889.66;5030313;28;20480;-57
2022/07/28 01:08:52;;;;;;;2.08;1.17;;;;;;;13.94;77.52;101893.06;5030801;28;20131;-59
2022/07/28 01:11:53;;;;;;;3.70;1.77;;;;;;;13.91;78.07;101892.94;5034759;28;20029;-56
2022/07/28 01:14:41;;;;;;;4.07;1.40;;;;;;;13.90;78.27;101889.47;5042658;28;20028;-59
2022/07/28 01:17:22;;;;;;;2.53;1.40;;;;;;;13.89;78.59;101889.41;5033698;28;20454;-59
2022/07/28 01:20:05;;;;;;;3.40;1.17;;;;;;;13.87;77.71;101893.69;5037331;28;20049;-59
2022/07/28 01:22:38;;;;;;;2.88;1.30;;;;;;;13.84;78.37;101893.56;5042760;28;20028;-58
2022/07/28 01:25:38;;;;;;;5.63;1.20;;;;;;;13.78;79.03;101889.03;5034384;28;20029;-58
2022/07/28 01:28:51;;;;;;;3.17;1.48;;;;;;;13.57;79.88;101893.53;5037293;28;20056;-59
2022/07/28 01:31:22;;;;;;;5.18;1.70;;;;;;;13.58;79.40;101894.44;5030228;28;20043;-58
2022/07/28 01:34:02;;;;;;;2.50;1.08;;;;;;;13.55;79.64;101889.97;5032132;28;20052;-57
2022/07/28 01:36:34;;;;;;;3.60;1.43;;;;;;;13.50;80.19;101891.50;5039724;28;20052;-59
2022/07/28 01:39:01;;;;;;;2.35;1.30;;;;;;;13.44;80.94;101886.03;5031275;28;20414;-59
2022/07/28 01:41:31;;;;;;;2.20;1.50;;;;;;;13.37;81.89;101877.13;5029673;28;20021;-58
2022/07/28 01:44:00;;;;;;;3.22;1.60;;;;;;;13.33;81.63;101883.94;5030085;28;20552;-57
2022/07/28 01:46:26;;;;;;;3.08;1.50;;;;;;;13.32;81.12;101878.69;5028073;28;20032;-59
2022/07/28 01:48:54;;;;;;;5.85;1.60;;;;;;;13.28;81.60;101876.78;5030914;28;20017;-59
2022/07/28 01:51:22;;;;;;;7.07;1.80;;;;;;;13.24;81.88;101880.97;5030045;28;20155;-59
2022/07/28 01:53:50;;;;;;;5.07;1.75;;;;;;;13.21;81.66;101873.97;5028450;28;20030;-58
2022/07/28 01:56:18;;;;;;;2.83;1.40;;;;;;;13.21;82.07;101868.75;5028163;28;20025;-57
2022/07/28 01:58:48;;;;;;;5.10;1.75;;;;;;;13.24;82.01;101875.78;5042275;28;20017;-57
2022/07/28 02:01:15;;;;;;;3.50;1.67;;;;;;;13.24;81.96;101864.50;5041130;28;20099;-59
2022/07/28 02:03:43;;;;;;;2.42;1.40;;;;;;;13.21;82.51;101876.56;5032442;28;20052;-58
2022/07/28 02:06:10;;;;;;;5.20;1.52;;;;;;;13.20;82.36;101872.16;5029444;28;20028;-58
2022/07/28 02:08:39;;;;;;;3.03;1.60;;;;;;;13.18;82.22;101867.75;5029881;28;20388;-56
2022/07/28 02:13:50;;;;;;;3.08;1.80;;;;;;;13.12;83.41;101857.09;5032869;28;20380;-57
2022/07/28 02:16:21;;;;;;;3.53;1.75;;;;;;;13.04;83.89;101857.69;5047840;28;20029;-59
2022/07/28 02:18:48;;;;;;;2.67;1.67;;;;;;;13.07;82.86;101854.34;5034485;28;20452;-58
2022/07/28 02:21:15;;;;;;;6.47;1.75;;;;;;;13.07;82.86;101860.44;5032545;28;20029;-59
2022/07/28 02:23:42;;;;;;;3.42;1.70;;;;;;;13.04;83.04;101856.84;5033429;28;20051;-58
2022/07/28 02:26:12;;;;;;;2.30;1.67;;;;;;;13.04;83.57;101859.44;5039068;28;20074;-59
2022/07/28 02:28:42;;;;;;;3.22;1.77;;;;;;;13.01;83.00;101854.09;5028551;28;20055;-57
2022/07/28 02:31:18;;;;;;;3.80;1.65;;;;;;;12.99;83.67;101856.63;5030122;28;20249;-59
2022/07/28 02:33:45;;;;;;;3.53;1.80;;;;;;;12.95;83.89;101850.44;5030642;28;20044;-59
2022/07/28 02:36:18;;;;;;;5.15;1.70;;;;;;;12.94;83.43;101856.47;5039312;28;20029;-57
2022/07/28 02:38:45;;;;;;;3.13;1.77;;;;;;;12.89;84.07;101855.41;5030031;28;20033;-59
2022/07/28 02:41:17;;;;;;;5.03;1.52;;;;;;;12.86;83.32;101855.31;5037523;28;20064;-59
2022/07/28 02:43:47;;;;;;;2.65;1.73;;;;;;;12.81;84.10;101852.50;5033152;28;20758;-59
2022/07/28 02:46:15;;;;;;;3.30;1.55;;;;;;;12.75;84.30;101852.28;5033105;28;20483;-58
2022/07/28 02:48:43;;;;;;;1.77;1.55;;;;;;;12.68;83.73;101861.53;5033322;28;20049;-59
2022/07/28 02:51:10;;;;;;;3.30;1.55;;;;;;;12.68;84.29;101858.94;5027492;28;20065;-59
2022/07/28 02:53:36;;;;;;;6.97;2.30;;;;;;;12.67;84.76;101854.56;5035964;28;20024;-58
2022/07/28 02:56:03;;;;;;;5.03;1.50;;;;;;;12.65;84.38;101848.41;5027925;28;20029;-59
2022/07/28 02:58:29;;;;;;;3.25;1.70;;;;;;;12.60;83.89;101853.44;5030011;28;20472;-58
2022/07/28 03:00:55;;;;;;;3.10;1.70;;;;;;;12.62;83.81;101853.50;5027384;28;20376;-58
2022/07/28 03:03:21;;;;;;;4.72;1.58;;;;;;;12.61;84.28;101849.09;5029918;28;20064;-58
2022/07/28 03:05:47;;;;;;;2.13;1.70;;;;;;;12.60;83.67;101853.44;5028443;28;20029;-57
2022/07/28 03:08:14;;;;;;;3.08;1.50;;;;;;;12.59;83.62;101850.78;5028955;28;20029;-57
2022/07/28 03:10:40;;;;;;;2.30;1.60;;;;;;;12.56;83.73;101843.72;5028654;28;20029;-58
2022/07/28 03:13:06;;;;;;;1.98;1.40;;;;;;;12.55;84.28;101848.88;5028167;28;20021;-59
2022/07/28 03:15:35;;;;;;;5.07;1.48;;;;;;;12.52;83.98;101848.75;5030989;28;20028;-57
2022/07/28 03:18:02;;;;;;;3.35;1.63;;;;;;;12.52;83.98;101848.75;5040179;28;20024;-58
2022/07/28 03:20:27;;;;;;;5.35;1.83;;;;;;;12.48;84.35;101843.41;5044983;28;20115;-58
2022/07/28 03:22:54;;;;;;;3.03;1.50;;;;;;;12.46;84.24;101849.41;5028599;28;20116;-57
2022/07/28 03:25:28;;;;;;;3.28;1.45;;;;;;;12.45;83.92;101851.09;5039342;28;20041;-58
2022/07/28 03:27:57;;;;;;;5.38;1.95;;;;;;;12.40;83.96;101855.22;5027287;28;20069;-59
2022/07/28 03:30:35;;;;;;;5.20;1.45;;;;;;;12.34;84.09;101855.00;5035137;28;20025;-57
2022/07/28 03:33:01;;;;;;;2.95;1.45;;;;;;;12.31;84.17;101860.03;5034745;28;20027;-59
2022/07/28 03:35:30;;;;;;;5.13;2.38;;;;;;;12.31;84.66;101849.66;5043949;28;20500;-58
2022/07/28 03:38:04;;;;;;;4.43;1.92;;;;;;;12.28;84.14;101859.94;5034180;28;20027;-57
2022/07/28 03:40:31;;;;;;;2.97;1.92;;;;;;;12.25;84.29;101856.38;5031958;28;20029;-59
2022/07/28 03:42:58;;;;;;;3.47;1.70;;;;;;;12.23;84.85;101850.22;5034356;28;20033;-56
2022/07/28 03:45:25;;;;;;;4.70;1.80;;;;;;;12.19;84.32;101856.13;5029055;28;20214;-57
2022/07/28 03:47:52;;;;;;;5.25;1.77;;;;;;;12.17;85.13;101856.88;5025181;28;20021;-57
2022/07/28 03:50:22;;;;;;;3.03;1.60;;;;;;;12.12;85.50;101860.16;5026507;28;20056;-58
2022/07/28 03:52:47;;;;;;;3.40;1.92;;;;;;;12.10;86.12;101861.84;5029442;28;20025;-57
2022/07/28 03:55:14;;;;;;;3.28;1.80;;;;;;;12.07;85.72;101858.19;5028617;28;20494;-57
2022/07/28 03:57:39;;;;;;;1.70;1.40;;;;;;;12.04;86.21;101860.63;5024854;28;20414;-57
2022/07/28 04:00:05;;;;;;;5.68;1.80;;;;;;;12.03;86.29;101851.97;5030210;28;20186;-58
2022/07/28 04:02:30;;;;;;;4.55;1.95;;;;;;;11.98;86.27;101846.56;5033796;28;20030;-57
2022/07/28 04:04:55;;;;;;;3.53;1.95;;;;;;;11.92;85.99;101846.31;5039553;28;20017;-58
2022/07/28 04:07:21;;;;;;;2.78;1.92;;;;;;;11.89;86.98;101846.19;5032755;28;20033;-59
2022/07/28 04:09:46;;;;;;;5.18;2.50;;;;;;;11.88;87.06;101852.19;5039540;28;20358;-58
2022/07/28 04:12:11;;;;;;;4.32;2.03;;;;;;;11.86;87.29;101848.63;5033328;28;20025;-58
2022/07/28 04:14:36;;;;;;;4.45;2.50;;;;;;;11.84;86.89;101847.69;5032154;28;20063;-58
2022/07/28 04:17:02;;;;;;;4.95;1.90;;;;;;;11.86;86.61;101846.03;5036975;28;20073;-57
2022/07/28 04:19:27;;;;;;;4.88;2.05;;;;;;;11.88;86.88;101844.41;5045392;28;20405;-58
2022/07/28 04:21:52;;;;;;;4.07;2.25;;;;;;;11.89;86.28;101852.25;5037699;28;20032;-57
2022/07/28 04:24:18;;;;;;;4.15;1.70;;;;;;;11.87;87.12;101846.09;5039592;28;20032;-59
2022/07/28 04:26:43;;;;;;;3.47;1.70;;;;;;;11.85;86.94;101849.47;5037794;28;20017;-58
2022/07/28 04:29:08;;;;;;;5.85;2.00;;;;;;;11.87;87.16;101845.25;5030819;28;20025;-57
2022/07/28 04:31:34;;;;;;;4.13;1.90;;;;;;;11.92;87.33;101845.44;5037636;28;20039;-56
2022/07/28 04:33:59;;;;;;;3.38;1.73;;;;;;;11.93;86.82;101844.59;5040468;28;20447;-58
2022/07/28 04:36:25;;;;;;;2.65;1.80;;;;;;;11.95;86.45;101843.84;5032086;28;20036;-59
2022/07/28 04:38:50;;;;;;;6.20;2.03;;;;;;;11.96;86.51;101843.00;5032766;28;20381;-57
2022/07/28 04:41:15;;;;;;;2.67;1.85;;;;;;;12.00;86.05;101844.94;5039846;28;20032;-58
2022/07/28 04:43:40;;;;;;;5.07;2.17;;;;;;;12.03;85.85;101848.47;5038930;28;20105;-58
2022/07/28 04:46:06;;;;;;;2.65;1.50;;;;;;;12.06;86.76;101848.59;5031038;28;20024;-58
2022/07/28 04:48:31;;;;;;;3.63;1.60;;;;;;;12.10;86.04;101845.34;5034291;28;20017;-59
2022/07/28 04:50:56;;;;;;;4.78;2.25;;;;;;;12.12;85.95;101843.72;5043151;28;20036;-57
2022/07/28 04:53:23;;;;;;;4.13;2.13;;;;;;;12.06;86.91;101844.31;5041857;28;20029;-58
2022/07/28 04:55:49;;;;;;;3.50;1.80;;;;;;;12.06;86.98;101840.81;5042538;28;20021;-58
2022/07/28 04:58:17;;;;;;;3.15;2.10;;;;;;;12.09;86.46;101843.53;5045888;28;20329;-58
2022/07/28 05:00:42;;;;;;;4.10;1.95;;;;;;;12.07;86.88;101851.25;5032174;28;20024;-58
2022/07/28 05:03:08;;;;;;;4.65;1.77;;;;;;;12.09;87.29;101843.53;5032278;28;20021;-59
2022/07/28 05:05:33;;;;;;;4.18;2.08;;;;;;;12.08;87.61;101846.97;5035504;28;20029;-57
2022/07/28 05:07:58;;;;;;;4.80;1.90;;;;;;;12.12;87.38;101854.09;5042424;28;20411;-57
2022/07/28 05:10:24;;;;;;;6.53;2.08;;;;;;;12.10;87.32;101850.56;5049559;28;20076;-57
2022/07/28 05:12:51;;;;;;;3.05;1.55;;;;;;;12.11;86.93;101844.50;5049809;28;20036;-58
2022/07/28 05:15:16;;;;;;;6.07;2.40;;;;;;;12.18;87.57;101848.28;5048763;28;20063;-58
2022/07/28 05:17:41;;;;;;;2.75;2.05;;;;;;;12.22;86.39;101851.06;5049020;28;20044;-57
2022/07/28 05:20:07;;;;;;;4.78;2.33;;;;;;;12.27;87.30;101847.78;5049240;28;20045;-58
2022/07/28 05:22:44;;;;;;;4.47;2.25;;;;;;;12.32;87.15;101847.09;5049159;28;20032;-58
2022/07/28 05:25:17;;;;;;;4.10;2.22;;;;;;;12.29;87.94;101851.28;5049013;28;20100;-59
2022/07/28 05:27:44;;;;;;;3.90;2.30;;;;;;;12.34;86.83;101852.41;5048045;28;20392;-58
2022/07/28 05:30:10;;;;;;;4.40;1.63;;;;;;;12.42;86.92;101845.78;5047443;28;20037;-57
2022/07/28 05:32:36;;;;;;;5.45;2.25;;;;;;;12.52;86.65;101853.97;5048910;28;20534;-59
2022/07/28 05:35:02;;;;;;;4.65;2.00;;;;;;;12.57;86.77;101853.34;5048821;28;20029;-57
2022/07/28 05:37:28;;;;;;;5.43;2.20;;;;;;;12.57;86.72;101850.72;5048869;28;20043;-58
2022/07/28 05:39:53;;;;;;;4.40;2.15;;;;;;;12.64;87.11;101863.97;5049159;28;20151;-58
2022/07/28 05:42:18;;;;;;;5.88;2.33;;;;;;;12.75;86.81;101859.19;5048872;28;20028;-58
2022/07/28 05:44:43;;;;;;;3.40;1.52;;;;;;;12.90;85.94;101862.38;5049149;28;20009;-58
2022/07/28 05:47:09;;;;;;;3.53;2.13;;;;;;;13.06;85.27;101857.78;5048407;28;20032;-58
2022/07/28 05:49:34;;;;;;;4.78;1.80;;;;;;;13.19;84.99;101854.78;5033357;28;20036;-57
2022/07/28 05:51:59;;;;;;;3.75;1.92;;;;;;;13.29;83.82;101847.34;5030552;28;20028;-58
2022/07/28 05:54:24;;;;;;;3.83;2.00;;;;;;;13.36;83.86;101851.94;5029074;28;20030;-58
2022/07/28 05:56:50;;;;;;;3.90;1.92;;;;;;;13.44;83.43;101860.00;5031014;28;20100;-59
2022/07/28 05:59:15;;;;;;;4.90;2.42;;;;;;;13.38;83.53;101855.50;5029070;28;20029;-58
2022/07/28 06:01:41;;;;;;;4.30;2.22;;;;;;;13.44;82.81;101860.91;5028632;28;20014;-57
2022/07/28 06:04:06;;;;;;;6.18;2.10;;;;;;;13.52;82.98;101863.84;5028152;28;20533;-58
2022/07/28 06:06:31;;;;;;;4.85;1.70;;;;;;;13.60;82.91;101856.28;5030294;28;20080;-57
2022/07/28 06:08:57;;;;;;;6.97;2.63;;;;;;;13.62;81.91;101859.81;5032092;28;20017;-57
2022/07/28 06:11:22;;;;;;;4.18;2.10;;;;;;;13.61;82.07;101857.16;5029385;28;20038;-58
2022/07/28 06:13:48;;;;;;;2.75;1.90;;;;;;;13.66;82.51;101861.72;5043781;28;20028;-58
2022/07/28 06:16:13;;;;;;;5.63;1.90;;;;;;;13.73;82.10;101856.72;5047560;28;20021;-57
2022/07/28 06:18:38;;;;;;;5.00;1.77;;;;;;;13.73;82.32;101854.09;5048340;28;20068;-56
2022/07/28 06:21:04;;;;;;;4.57;2.13;;;;;;;13.79;81.71;101857.84;5047833;28;20385;-58
2022/07/28 06:23:29;;;;;;;5.30;2.35;;;;;;;13.85;80.94;101859.75;5047566;28;20025;-58
2022/07/28 06:25:54;;;;;;;3.50;1.98;;;;;;;13.90;80.71;101855.59;5046312;28;20024;-58
2022/07/28 06:28:20;;;;;;;2.55;1.83;;;;;;;13.98;80.87;101857.56;5048227;28;20116;-59
2022/07/28 06:30:48;;;;;;;6.78;2.05;;;;;;;14.03;80.30;101856.03;5047523;28;20021;-58
2022/07/28 06:33:15;;;;;;;3.10;1.55;;;;;;;14.10;79.56;101852.78;5047825;28;20218;-58
2022/07/28 06:35:41;;;;;;;4.18;1.70;;;;;;;14.14;80.13;101852.03;5048232;28;20104;-58
2022/07/28 06:38:06;;;;;;;5.05;2.05;;;;;;;14.21;79.78;101849.66;5047632;28;20108;-58
2022/07/28 06:40:31;;;;;;;3.47;1.77;;;;;;;14.25;78.76;101852.41;5047547;28;20377;-57
2022/07/28 06:42:57;;;;;;;3.13;1.42;;;;;;;14.33;78.32;101850.06;5047890;28;20027;-59
2022/07/28 06:45:22;;;;;;;4.47;1.92;;;;;;;14.40;77.76;101853.72;5047789;28;20090;-57
2022/07/28 06:47:49;;;;;;;3.97;1.65;;;;;;;14.48;77.75;101854.00;5047828;28;20031;-59
2022/07/28 06:50:14;;;;;;;3.75;1.58;;;;;;;14.65;78.03;101855.41;5036585;28;20107;-57
2022/07/28 06:52:39;;;;;;;4.57;2.10;;;;;;;14.71;76.79;101843.38;5047168;28;20031;-57
2022/07/28 06:55:06;;;;;;;3.78;1.48;;;;;;;14.84;75.38;101853.38;5047594;28;20020;-58
2022/07/28 06:57:34;;;;;;;5.10;1.55;;;;;;;14.99;75.31;101849.47;5048287;28;20021;-58
2022/07/28 07:00:05;;;;;;;2.45;1.50;;;;;;;15.07;74.63;101857.53;5048507;28;20021;-57
2022/07/28 07:02:30;;;;;;;2.17;1.30;;;;;;;15.25;74.89;101849.34;5047830;28;20017;-58
2022/07/28 07:04:55;;;;;;;5.55;1.52;;;;;;;15.31;75.11;101857.34;5047080;28;20039;-57
2022/07/28 07:07:22;;;;;;;3.28;1.67;;;;;;;15.40;74.87;101858.47;5048195;28;20021;-58
2022/07/28 07:09:47;;;;;;;3.38;1.67;;;;;;;15.53;74.08;101857.97;5048237;28;20025;-58
2022/07/28 07:12:12;;;;;;;3.83;1.50;;;;;;;15.74;73.17;101854.16;5047492;28;20059;-59
2022/07/28 07:14:38;;;;;;;3.35;1.50;;;;;;;15.99;73.06;101852.19;5048113;28;20231;-59
2022/07/28 07:17:03;;;;;;;4.70;1.60;;;;;;;16.25;71.01;101861.56;5046851;28;20476;-58
2022/07/28 07:19:28;;;;;;;3.42;1.30;;;;;;;16.47;70.53;101860.34;5045683;28;20140;-57
2022/07/28 07:21:54;;;;;;;2.85;1.63;;;;;;;16.71;69.02;101861.78;5045142;28;20393;-58
2022/07/28 07:24:20;;;;;;;4.55;1.33;;;;;;;16.96;67.93;101857.09;5045585;28;20291;-57
2022/07/28 07:26:45;;;;;;;4.32;1.70;;;;;;;17.07;66.06;101859.91;5032123;28;20040;-59
2022/07/28 07:29:10;;;;;;;2.92;1.55;;;;;;;17.21;66.52;101857.63;5031570;28;20746;-59
2022/07/28 07:31:37;;;;;;;2.13;1.75;;;;;;;17.42;66.07;101860.63;5028596;28;20022;-57
2022/07/28 07:34:03;;;;;;;4.65;1.40;;;;;;;17.63;63.22;101849.69;5030852;28;20078;-58
2022/07/28 07:36:28;;;;;;;4.38;1.38;;;;;;;17.87;63.19;101856.22;5028284;28;20460;-57
2022/07/28 07:38:54;;;;;;;5.03;1.40;;;;;;;17.75;62.53;101855.16;5028840;28;20028;-58
2022/07/28 07:41:19;;;;;;;2.53;1.45;;;;;;;17.88;63.12;101850.16;5028985;28;20025;-59
2022/07/28 07:43:45;;;;;;;3.35;1.50;;;;;;;17.86;61.90;101850.09;5034129;28;20400;-59
2022/07/28 07:46:11;;;;;;;3.88;1.70;;;;;;;17.66;62.79;101847.16;5037486;28;20033;-58
2022/07/28 07:48:36;;;;;;;5.13;1.30;;;;;;;17.72;64.09;101841.13;5028828;28;20102;-58
2022/07/28 07:51:02;;;;;;;4.05;1.50;;;;;;;17.80;62.49;101836.00;5042649;28;20029;-58
2022/07/28 07:53:27;;;;;;;3.72;1.52;;;;;;;17.91;63.10;101841.44;5051548;28;20029;-59
2022/07/28 07:55:53;;;;;;;5.95;1.77;;;;;;;18.26;63.17;101837.69;5051064;28;20093;-56
2022/07/28 07:58:18;;;;;;;3.13;1.20;;;;;;;18.46;60.93;101836.25;5047125;28;20389;-57
2022/07/28 08:00:43;;;;;;;3.03;1.15;;;;;;;18.71;58.96;101836.59;5035288;28;20106;-58
2022/07/28 08:03:09;;;;;;;2.92;1.00;;;;;;;18.90;59.85;101841.22;5043888;28;20028;-59
2022/07/28 08:05:34;;;;;;;7.43;1.33;;;;;;;19.14;58.85;101832.78;5051209;28;20037;-59
2022/07/28 08:08:00;;;;;;;5.13;1.30;;;;;;;19.41;59.59;101830.47;5051274;28;20017;-58
2022/07/28 08:10:25;;;;;;;3.67;1.38;;;;;;;19.71;58.30;101830.75;5051157;28;20362;-59
2022/07/28 08:12:50;;;;;;;4.40;1.10;;;;;;;19.97;56.60;101827.50;5034374;28;20030;-58
2022/07/28 08:15:16;;;;;;;2.63;1.00;;;;;;;20.22;55.19;101823.31;5032350;28;20263;-58
2022/07/28 08:17:41;;;;;;;5.13;0.88;;;;;;;20.42;55.07;101827.81;5034167;28;20505;-57
2022/07/28 08:20:07;;;;;;;2.40;1.13;;;;;;;20.55;55.31;101828.78;5038680;28;20191;-59
2022/07/28 08:22:32;;;;;;;5.03;1.05;;;;;;;20.50;53.49;101830.50;5031491;28;20026;-58
2022/07/28 08:25:00;;;;;;;3.85;1.10;;;;;;;20.64;54.07;101828.84;5035272;28;20048;-57
2022/07/28 08:27:26;;;;;;;3.75;1.33;;;;;;;20.80;53.56;101826.28;5039564;28;20465;-57
2022/07/28 08:29:52;;;;;;;73.20;6.95;;;;;;;21.03;53.30;101829.94;5042144;28;20047;-58
2022/07/28 08:32:17;;;;;;;7.88;1.70;;;;;;;21.08;52.06;101818.50;5050555;28;20025;-59
2022/07/28 08:34:43;;;;;;;75.63;6.72;;;;;;;21.28;53.35;101820.31;5050761;28;20025;-59
2022/07/28 08:37:08;;;;;;;7.60;1.50;;;;;;;21.37;51.44;101810.72;5045494;28;20026;-59
2022/07/28 08:39:34;;;;;;;4.20;1.15;;;;;;;21.56;52.62;101815.13;5045154;28;20078;-59
2022/07/28 08:42:14;;;;;;;5.30;1.42;;;;;;;21.62;49.96;101811.63;5042086;28;20417;-59
2022/07/28 08:44:45;;;;;;;2.08;1.05;;;;;;;21.62;52.07;101818.66;5045442;28;20107;-59
2022/07/28 08:47:13;;;;;;;5.07;1.05;;;;;;;21.86;51.64;101822.22;5040949;28;20174;-57
2022/07/28 08:49:41;;;;;;;3.65;1.10;;;;;;;21.94;49.56;101825.72;5046069;28;20037;-59
2022/07/28 08:52:10;;;;;;;2.75;1.20;;;;;;;21.77;48.44;101818.66;5042901;28;20025;-58
2022/07/28 08:54:40;;;;;;;4.78;1.30;;;;;;;21.56;48.98;101815.13;5041102;28;20029;-59
2022/07/28 08:57:07;;;;;;;5.80;1.08;;;;;;;21.69;51.98;101817.78;5040522;28;21228;-59
2022/07/28 08:59:33;;;;;;;3.00;1.10;;;;;;;21.91;51.30;101820.47;5042167;28;20029;-59
2022/07/28 09:01:59;;;;;;;2.88;1.10;;;;;;;22.03;50.52;101815.19;5041791;28;20029;-58
2022/07/28 09:04:25;;;;;;;4.25;1.35;;;;;;;22.16;49.43;101815.16;5040995;28;20029;-58
2022/07/28 09:06:50;;;;;;;4.63;1.27;;;;;;;22.35;50.05;101809.84;5041281;28;20036;-58
2022/07/28 09:09:16;;;;;;;4.97;1.52;;;;;;;22.53;49.84;101809.81;5035124;28;20033;-59
2022/07/28 09:11:41;;;;;;;4.43;0.90;;;;;;;22.72;47.88;101809.75;5050659;28;20108;-59
2022/07/28 09:14:07;;;;;;;5.53;1.38;;;;;;;22.73;48.37;101806.25;5037522;28;20481;-59
2022/07/28 09:16:32;;;;;;;3.38;1.13;;;;;;;22.70;46.89;101801.00;5042122;28;20032;-59
2022/07/28 09:18:58;;;;;;;4.80;1.30;;;;;;;22.72;47.68;101799.19;5043640;28;20098;-59
2022/07/28 09:21:23;;;;;;;3.17;1.13;;;;;;;22.77;47.21;101786.84;5049754;28;20036;-60
2022/07/28 09:23:49;;;;;;;2.05;0.93;;;;;;;22.77;47.54;101784.19;5049312;28;20033;-59
2022/07/28 09:26:16;;;;;;;3.90;0.90;;;;;;;22.89;47.49;101777.13;5047819;28;20155;-59
2022/07/28 09:28:54;;;;;;;1.88;1.15;;;;;;;23.02;47.66;101770.91;5031656;28;20096;-60
2022/07/28 09:31:21;;;;;;;2.67;0.80;;;;;;;23.14;46.81;101763.75;5045699;28;20071;-58
2022/07/28 09:34:03;;;;;;;6.78;1.17;;;;;;;23.36;47.86;101775.09;5044852;28;20028;-58
2022/07/28 09:36:37;;;;;;;2.53;1.13;;;;;;;23.52;45.69;101769.72;5051360;28;20520;-59
2022/07/28 09:39:03;;;;;;;4.57;1.08;;;;;;;23.33;45.32;101767.16;5050804;28;20029;-59
2022/07/28 09:41:28;;;;;;;2.58;0.93;;;;;;;23.39;45.57;101760.94;5050538;28;20667;-59
2022/07/28 09:43:54;;;;;;;3.95;1.10;;;;;;;23.40;45.17;101760.06;5050803;28;20025;-58
2022/07/28 09:46:21;;;;;;;2.78;0.90;;;;;;;23.34;44.48;101749.53;5050733;28;20021;-59
2022/07/28 09:48:55;;;;;;;5.93;1.00;;;;;;;23.20;44.25;101755.81;5042933;28;20031;-60
2022/07/28 09:51:23;;;;;;;1.67;0.93;;;;;;;22.92;44.80;101753.31;5045637;28;20123;-58
2022/07/28 09:53:50;;;;;;;3.97;1.10;;;;;;;22.84;45.01;101745.44;5051098;28;20111;-57
2022/07/28 09:56:15;;;;;;;2.90;0.93;;;;;;;22.90;45.80;101753.31;5050620;28;20041;-59
2022/07/28 09:58:52;;;;;;;4.13;1.50;;;;;;;22.97;44.95;101759.44;5050578;28;20033;-58
2022/07/28 10:01:19;;;;;;;2.47;0.88;;;;;;;22.92;44.70;101766.53;5050813;28;20043;-59
2022/07/28 10:03:49;;;;;;;2.78;0.95;;;;;;;23.06;46.71;101750.63;5041162;28;20029;-60
2022/07/28 10:06:23;;;;;;;5.28;1.20;;;;;;;23.21;44.92;101754.91;5042876;28;20021;-59
2022/07/28 10:08:50;;;;;;;2.47;0.98;;;;;;;23.26;43.44;101747.81;5050446;28;20029;-59
2022/07/28 10:11:18;;;;;;;6.30;1.58;;;;;;;23.44;45.01;101745.97;5050157;28;20075;-59
2022/07/28 10:14:20;;;;;;;1.65;0.60;;;;;;;23.60;44.25;101753.78;5049842;28;20027;-59
2022/07/28 10:16:52;;;;;;;1.52;0.75;;;;;;;23.72;43.87;101747.50;5008630;28;20052;-59
2022/07/28 10:19:17;;;;;;;5.13;1.20;;;;;;;23.74;44.02;101743.97;5049851;28;20079;-58
2022/07/28 10:21:44;;;;;;;2.38;1.08;;;;;;;23.63;43.10;101756.41;5050289;28;20098;-59
2022/07/28 10:24:13;;;;;;;3.45;0.90;;;;;;;23.60;43.21;101751.16;5049760;28;20468;-60
2022/07/28 10:26:43;;;;;;;4.13;1.13;;;;;;;23.49;43.65;101746.78;5050307;28;20035;-60
2022/07/28 10:29:12;;;;;;;2.33;0.82;;;;;;;23.63;44.88;101736.13;5049783;28;20163;-60
2022/07/28 10:32:12;;;;;;;3.05;0.80;;;;;;;23.59;43.88;101754.66;5050161;28;20033;-60
2022/07/28 10:34:45;;;;;;;2.92;1.30;;;;;;;23.48;43.84;101745.06;5035396;28;20037;-60
2022/07/28 10:37:17;;;;;;;2.92;1.25;;;;;;;23.39;44.70;101735.41;5049772;28;20032;-60
2022/07/28 10:40:05;;;;;;;2.88;0.80;;;;;;;23.54;44.47;101745.88;5050030;28;20029;-60
2022/07/28 10:42:30;;;;;;;3.35;1.10;;;;;;;23.71;44.30;101732.53;5049614;28;20564;-60
2022/07/28 10:44:57;;;;;;;1.65;0.70;;;;;;;23.87;43.70;101735.91;5049876;28;20029;-60
2022/07/28 10:47:24;;;;;;;2.38;1.02;;;;;;;23.87;42.32;101738.56;5049179;28;20060;-60
2022/07/28 10:49:50;;;;;;;2.08;0.80;;;;;;;23.66;42.23;101729.91;5033303;28;20071;-60
2022/07/28 10:52:17;;;;;;;3.95;1.40;;;;;;;23.64;42.70;101739.63;5029208;28;20018;-60
2022/07/28 10:54:50;;;;;;;2.05;0.80;;;;;;;23.80;44.12;101742.16;5031151;28;20525;-60
2022/07/28 10:57:16;;;;;;;3.38;1.00;;;;;;;23.98;42.63;101730.47;5043040;28;20028;-59
2022/07/28 11:00:02;;;;;;;3.15;0.90;;;;;;;24.01;43.95;101730.47;5048798;28;20025;-60
2022/07/28 11:02:49;;;;;;;2.90;0.93;;;;;;;23.84;41.85;101726.22;5045493;28;20122;-59
2022/07/28 11:05:38;;;;;;;3.35;0.80;;;;;;;23.82;42.90;101727.13;5040117;28;20025;-59
2022/07/28 11:08:15;;;;;;;3.30;0.93;;;;;;;23.88;42.57;101724.44;5048379;28;20052;-60
2022/07/28 11:10:49;;;;;;;2.75;0.98;;;;;;;23.86;42.32;101726.19;5047329;28;20480;-59
2022/07/28 11:13:31;;;;;;;2.47;0.60;;;;;;;23.90;41.72;101720.00;5034819;28;20540;-61
2022/07/28 11:16:17;;;;;;;6.38;1.20;;;;;;;23.95;41.81;101718.19;5040321;28;20036;-61
2022/07/28 11:19:00;;;;;;;3.10;1.10;;;;;;;23.87;40.23;101712.09;5044667;28;20448;-60
2022/07/28 11:21:26;;;;;;;5.35;0.90;;;;;;;23.75;41.72;101708.66;5042523;28;20036;-61
2022/07/28 11:23:56;;;;;;;3.15;0.93;;;;;;;23.80;42.51;101705.97;5047943;28;20032;-61
2022/07/28 11:26:22;;;;;;;14.00;3.20;;;;;;;23.62;42.50;101702.63;5047006;28;20123;-61
2022/07/28 11:28:56;;;;;;;45.38;8.45;;;;;;;23.60;42.30;101701.75;5047721;28;20112;-61
2022/07/28 11:31:43;;;;;;;4.53;1.17;;;;;;;23.54;41.92;101701.81;5048441;28;20032;-60